createdAt,value
2022-10-18T00:04:57.858Z,4186
2022-10-18T00:10:10.076Z,4171
2022-10-18T00:15:22.192Z,4186
2022-10-18T00:20:34.669Z,4186
2022-10-18T00:25:46.935Z,4198
2022-10-18T00:30:59.243Z,4160
2022-10-18T00:36:11.500Z,4196
2022-10-18T00:41:23.861Z,4196
2022-10-18T00:46:36.328Z,4177
2022-10-18T00:51:48.648Z,4196
2022-10-18T00:57:00.992Z,4196
2022-10-18T01:02:13.339Z,4196
2022-10-18T01:07:25.664Z,4162
2022-10-18T01:12:37.867Z,4162
2022-10-18T01:17:50.064Z,4166
2022-10-18T01:23:02.446Z,4194
2022-10-18T01:28:14.813Z,4177
2022-10-18T01:33:27.132Z,4149
2022-10-18T01:43:52.903Z,4162
2022-10-18T01:49:05.020Z,4186
2022-10-18T01:54:17.557Z,4147
2022-10-18T01:59:29.774Z,4164
2022-10-18T02:04:41.999Z,4145
2022-10-18T02:09:54.193Z,4192
2022-10-18T02:15:06.467Z,4118
2022-10-18T02:20:18.783Z,4177
2022-10-18T02:25:31.288Z,4194
2022-10-18T02:30:43.468Z,4192
2022-10-18T02:35:55.746Z,4190
2022-10-18T02:41:08.274Z,4118
2022-10-18T02:46:20.630Z,4155
2022-10-18T02:51:33.221Z,4145
2022-10-18T02:56:45.588Z,4188
2022-10-18T03:01:57.750Z,4171
2022-10-18T03:07:09.847Z,4188
2022-10-18T03:12:22.139Z,4188
2022-10-18T03:17:34.634Z,4186
2022-10-18T03:22:46.773Z,4185
2022-10-18T03:27:59.107Z,4185
2022-10-18T03:33:11.477Z,4185
2022-10-18T03:38:23.922Z,4157
2022-10-18T03:43:36.162Z,4183
2022-10-18T03:48:48.370Z,4183
2022-10-18T03:54:00.554Z,4181
2022-10-18T03:59:12.836Z,4181
2022-10-18T04:04:25.154Z,4179
2022-10-18T04:09:37.358Z,4116
2022-10-18T04:14:49.591Z,4177
2022-10-18T04:25:14.320Z,4160
2022-10-18T04:30:26.646Z,4157
2022-10-18T04:35:38.951Z,4175
2022-10-18T04:40:51.276Z,4129
2022-10-18T04:46:03.838Z,4173
2022-10-18T04:51:16.653Z,4084
2022-10-18T04:56:28.944Z,4106
2022-10-18T05:01:41.387Z,4132
2022-10-18T05:06:53.626Z,4062
2022-10-18T05:12:06.016Z,4171
2022-10-18T05:17:18.385Z,4168
2022-10-18T05:22:31.087Z,4108
2022-10-18T05:27:43.023Z,4127
2022-10-18T05:32:55.242Z,4084
2022-10-18T05:38:07.871Z,4168
2022-10-18T05:43:20.394Z,4134
2022-10-18T05:48:32.556Z,4145
2022-10-18T05:53:45.035Z,4129
2022-10-18T05:58:57.350Z,4092
2022-10-18T06:04:09.947Z,4142
2022-10-18T06:09:22.436Z,4166
2022-10-18T06:14:34.831Z,4144
2022-10-18T06:19:47.410Z,4149
2022-10-18T06:24:59.653Z,4127
2022-10-18T06:30:11.877Z,4129
2022-10-18T06:35:24.199Z,4129
2022-10-18T06:40:36.485Z,4140
2022-10-18T06:45:48.896Z,4162
2022-10-18T06:51:01.334Z,4090
2022-10-18T06:56:13.647Z,4132
2022-10-18T07:01:26.188Z,4140
2022-10-18T07:06:38.377Z,4134
2022-10-18T07:11:50.945Z,4155
2022-10-18T07:17:03.181Z,4144
2022-10-18T07:22:15.605Z,4097
2022-10-18T07:27:27.978Z,4101
2022-10-18T07:32:40.361Z,4125
2022-10-18T07:37:52.566Z,3993
2022-10-18T07:43:05.034Z,4118
2022-10-18T07:48:17.073Z,4127
2022-10-18T07:53:29.336Z,4125
2022-10-18T07:58:41.736Z,4123
2022-10-18T08:03:54.039Z,4134
2022-10-18T08:09:06.551Z,4082
2022-10-18T08:14:18.912Z,4116
2022-10-18T08:19:31.089Z,4127
2022-10-18T08:24:43.575Z,4030
2022-10-18T08:29:55.969Z,4106
2022-10-18T08:35:08.588Z,4105
2022-10-18T08:40:20.438Z,4093
2022-10-18T08:45:47.917Z,4105
2022-10-18T08:50:45.252Z,4095
2022-10-18T08:55:57.886Z,4039
2022-10-18T09:01:09.842Z,4090
2022-10-18T09:06:23.435Z,4112
2022-10-18T09:11:34.421Z,4082
2022-10-18T09:16:46.883Z,4008
2022-10-18T09:21:59.135Z,4069
2022-10-18T09:27:11.484Z,4134
2022-10-18T09:32:24.076Z,4052
2022-10-18T09:37:36.235Z,4116
2022-10-18T09:42:48.623Z,4082
2022-10-18T09:48:00.833Z,4088
2022-10-18T09:53:13.158Z,4105
2022-10-18T09:58:25.394Z,4103
2022-10-18T10:03:37.702Z,4025
2022-10-18T10:08:50.027Z,4047
2022-10-18T10:14:02.232Z,4060
2022-10-18T10:19:14.465Z,4084
2022-10-18T10:24:28.695Z,4108
2022-10-18T10:29:44.319Z,4121
2022-10-18T10:34:51.466Z,4123
2022-10-18T10:40:20.414Z,4119
2022-10-18T10:45:16.162Z,4058
2022-10-18T10:50:28.519Z,4119
2022-10-18T10:55:40.766Z,4119
2022-10-18T11:00:53.082Z,4049
2022-10-18T11:06:05.824Z,4090
2022-10-18T11:11:20.598Z,4108
2022-10-18T11:16:30.642Z,4032
2022-10-18T11:21:42.949Z,4116
2022-10-18T11:26:55.258Z,4069
2022-10-18T11:32:07.709Z,4086
2022-10-18T11:37:28.386Z,4084
2022-10-18T11:42:34.771Z,4110
2022-10-18T11:47:45.217Z,4088
2022-10-18T11:52:57.506Z,4080
2022-10-18T11:58:09.852Z,4084
2022-10-18T12:03:22.280Z,4064
2022-10-18T12:08:35.380Z,4108
2022-10-18T12:13:47.711Z,4099
2022-10-18T12:19:00.090Z,4045
2022-10-18T12:24:12.397Z,4105
2022-10-18T12:29:24.991Z,4036
2022-10-18T12:34:37.152Z,4075
2022-10-18T12:40:16.950Z,4075
2022-10-18T12:45:02.055Z,4077
2022-10-18T12:50:14.532Z,4051
2022-10-18T12:55:26.585Z,4073
2022-10-18T13:00:39.012Z,4043
2022-10-18T13:05:54.267Z,4034
2022-10-18T13:11:03.742Z,4103
2022-10-18T13:16:16.293Z,4060
2022-10-18T13:21:28.768Z,4106
2022-10-18T13:26:41.053Z,4116
2022-10-18T13:31:53.374Z,4086
2022-10-18T13:37:05.557Z,4119
2022-10-18T13:42:18.136Z,4093
2022-10-18T13:47:30.563Z,3926
2022-10-18T13:52:43.102Z,4145
2022-10-18T13:57:55.261Z,4136
2022-10-18T14:03:12.770Z,4099
2022-10-18T14:08:20.234Z,4114
2022-10-18T14:13:32.608Z,4121
2022-10-18T14:18:44.709Z,4157
2022-10-18T14:23:57.369Z,4142
2022-10-18T14:29:09.728Z,4157
2022-10-18T14:34:22.181Z,4106
2022-10-18T14:39:34.340Z,4116
2022-10-18T14:44:47.029Z,4132
2022-10-18T14:49:59.454Z,4129
2022-10-18T14:55:12.040Z,4134
2022-10-18T15:05:36.959Z,4160
2022-10-18T15:10:49.224Z,4160
2022-10-18T15:16:01.294Z,4131
2022-10-18T15:21:13.308Z,4138
2022-10-18T15:26:25.418Z,4138
2022-10-18T15:31:37.636Z,4118
2022-10-18T15:36:49.768Z,4097
2022-10-18T15:42:02.543Z,4114
2022-10-18T15:47:14.998Z,4103
2022-10-18T15:52:27.120Z,4090
2022-10-18T15:57:39.398Z,4138
2022-10-18T16:02:51.771Z,4136
2022-10-18T16:08:03.930Z,4092
2022-10-18T16:13:16.263Z,4114
2022-10-18T16:18:28.432Z,4119
2022-10-18T16:23:40.580Z,4108
2022-10-18T16:28:53.018Z,4073
2022-10-18T16:34:05.200Z,4013
2022-10-18T16:39:17.538Z,3995
2022-10-18T16:44:29.984Z,4127
2022-10-18T16:49:42.092Z,4084
2022-10-18T16:54:54.466Z,4073
2022-10-18T17:00:07.178Z,4114
2022-10-18T17:05:19.441Z,4078
2022-10-18T17:10:31.815Z,4049
2022-10-18T17:15:44.648Z,4067
2022-10-18T17:20:57.134Z,4077
2022-10-18T17:26:27.613Z,4004
2022-10-18T17:31:22.015Z,4103
2022-10-18T17:36:34.537Z,4000
2022-10-18T17:41:46.852Z,4106
2022-10-18T17:46:59.070Z,4065
2022-10-18T17:52:11.366Z,4012
2022-10-18T17:57:23.920Z,4077
2022-10-18T18:02:37.232Z,4073
2022-10-18T18:07:48.494Z,3993
2022-10-18T18:13:00.891Z,4019
2022-10-18T18:18:13.143Z,4041
2022-10-18T18:23:25.426Z,4028
2022-10-18T18:28:38.004Z,4036
2022-10-18T18:33:50.293Z,4075
2022-10-18T18:39:02.640Z,4021
2022-10-18T18:44:15.093Z,4025
2022-10-18T18:49:27.589Z,4039
2022-10-18T18:54:39.868Z,4004
2022-10-18T18:59:52.414Z,4034
2022-10-18T19:05:04.954Z,4049
2022-10-18T19:10:17.209Z,4084
2022-10-18T19:15:29.756Z,4065
2022-10-18T19:20:42.242Z,3980
2022-10-18T19:25:54.484Z,4078
2022-10-18T19:31:07.024Z,4082
2022-10-18T19:36:19.300Z,4047
2022-10-18T19:41:31.877Z,3965
2022-10-18T19:46:44.445Z,4071
2022-10-18T19:51:56.916Z,4060
2022-10-18T19:57:09.263Z,4047
2022-10-18T20:02:21.618Z,3985
2022-10-18T20:07:33.967Z,3993
2022-10-18T20:12:46.470Z,3920
2022-10-18T20:17:58.905Z,4056
2022-10-18T20:23:11.432Z,4056
2022-10-18T20:28:23.952Z,4043
2022-10-18T20:33:36.311Z,4002
2022-10-18T20:38:48.735Z,4075
2022-10-18T20:44:01.137Z,4041
2022-10-18T20:49:13.459Z,4023
2022-10-18T20:54:25.703Z,3933
2022-10-18T20:59:38.190Z,4071
2022-10-18T21:04:50.540Z,4008
2022-10-18T21:10:02.743Z,4067
2022-10-18T21:15:15.476Z,4067
2022-10-18T21:20:27.694Z,4002
2022-10-18T21:25:39.915Z,4060
2022-10-18T21:30:52.112Z,4065
2022-10-18T21:36:04.456Z,3985
2022-10-18T21:41:16.804Z,4030
2022-10-18T21:46:29.251Z,4064
2022-10-18T21:51:41.941Z,3972
2022-10-18T21:56:54.166Z,4056
2022-10-18T22:02:06.358Z,4062
2022-10-18T22:07:18.677Z,4025
2022-10-18T22:12:31.056Z,4023
2022-10-18T22:17:43.461Z,4058
2022-10-18T22:22:55.988Z,4036
2022-10-18T22:28:08.240Z,4054
2022-10-18T22:33:21.041Z,4025
2022-10-18T22:38:33.602Z,3972
2022-10-18T22:43:46.023Z,4023
2022-10-18T22:48:58.085Z,4052
2022-10-18T22:54:10.329Z,4052
2022-10-18T22:59:22.695Z,4052
2022-10-18T23:04:34.881Z,4051
2022-10-18T23:09:47.323Z,4051
2022-10-18T23:14:59.597Z,3943
2022-10-18T23:20:11.876Z,3972
2022-10-18T23:25:24.405Z,4036
2022-10-18T23:30:36.932Z,4049
2022-10-18T23:35:49.343Z,4028
2022-10-18T23:41:01.702Z,4025
2022-10-18T23:46:14.020Z,4047
2022-10-18T23:51:26.316Z,4045
2022-10-18T23:56:38.714Z,4036
